sensor_id;sensor_type;location;lat;lon;timestamp;pressure;altitude;pressure_sealevel;temperature
65765;BMP180;52915;53.718;19.946;2023-03-11T00:00:54;97499.40;;;1.94
65765;BMP180;52915;53.718;19.946;2023-03-11T00:06:02;97490.20;;;2.00
65765;BMP180;52915;53.718;19.946;2023-03-11T00:11:06;97482.00;;;2.20
65765;BMP180;52915;53.718;19.946;2023-03-11T00:16:10;97486.20;;;2.30
65765;BMP180;52915;53.718;19.946;2023-03-11T00:21:17;97473.60;;;2.20
65765;BMP180;52915;53.718;19.946;2023-03-11T00:26:21;97469.60;;;2.02
65765;BMP180;52915;53.718;19.946;2023-03-11T00:31:25;97478.00;;;1.90
65765;BMP180;52915;53.718;19.946;2023-03-11T00:36:32;97455.40;;;1.90
65765;BMP180;52915;53.718;19.946;2023-03-11T00:41:36;97485.20;;;2.00
65765;BMP180;52915;53.718;19.946;2023-03-11T00:46:40;97465.40;;;2.20
65765;BMP180;52915;53.718;19.946;2023-03-11T00:51:44;97452.00;;;2.30
65765;BMP180;52915;53.718;19.946;2023-03-11T00:56:47;97458.60;;;2.38
65765;BMP180;52915;53.718;19.946;2023-03-11T01:01:51;97453.00;;;2.28
65765;BMP180;52915;53.718;19.946;2023-03-11T01:06:55;97443.20;;;2.12
65765;BMP180;52915;53.718;19.946;2023-03-11T01:11:59;97428.40;;;2.02
65765;BMP180;52915;53.718;19.946;2023-03-11T01:17:03;97414.00;;;2.10
65765;BMP180;52915;53.718;19.946;2023-03-11T01:22:07;97401.40;;;2.30
65765;BMP180;52915;53.718;19.946;2023-03-11T01:27:12;97409.80;;;2.40
65765;BMP180;52915;53.718;19.946;2023-03-11T01:32:16;97411.00;;;2.40
65765;BMP180;52915;53.718;19.946;2023-03-11T01:37:20;97412.40;;;2.30
65765;BMP180;52915;53.718;19.946;2023-03-11T01:42:24;97389.80;;;2.22
65765;BMP180;52915;53.718;19.946;2023-03-11T01:47:38;97382.00;;;2.20
65765;BMP180;52915;53.718;19.946;2023-03-11T01:52:43;97382.20;;;2.30
65765;BMP180;52915;53.718;19.946;2023-03-11T01:57:48;97391.00;;;2.40
65765;BMP180;52915;53.718;19.946;2023-03-11T02:02:57;97381.80;;;2.40
65765;BMP180;52915;53.718;19.946;2023-03-11T02:08:02;97371.00;;;2.30
65765;BMP180;52915;53.718;19.946;2023-03-11T02:13:06;97364.00;;;2.30
65765;BMP180;52915;53.718;19.946;2023-03-11T02:18:12;97368.00;;;2.40
65765;BMP180;52915;53.718;19.946;2023-03-11T02:23:31;97389.80;;;2.50
65765;BMP180;52915;53.718;19.946;2023-03-11T02:28:39;97391.40;;;2.30
65765;BMP180;52915;53.718;19.946;2023-03-11T02:33:45;97381.00;;;2.20
65765;BMP180;52915;53.718;19.946;2023-03-11T02:38:51;97380.80;;;2.08
65765;BMP180;52915;53.718;19.946;2023-03-11T02:43:56;97374.60;;;2.10
65765;BMP180;52915;53.718;19.946;2023-03-11T02:49:02;97386.80;;;2.30
65765;BMP180;52915;53.718;19.946;2023-03-11T02:54:06;97390.60;;;2.40
65765;BMP180;52915;53.718;19.946;2023-03-11T02:59:10;97385.00;;;2.34
65765;BMP180;52915;53.718;19.946;2023-03-11T03:04:14;97377.60;;;2.20
65765;BMP180;52915;53.718;19.946;2023-03-11T03:09:18;97372.80;;;2.12
65765;BMP180;52915;53.718;19.946;2023-03-11T03:14:22;97391.00;;;2.30
65765;BMP180;52915;53.718;19.946;2023-03-11T03:19:26;97389.00;;;2.40
65765;BMP180;52915;53.718;19.946;2023-03-11T03:24:30;97385.80;;;2.20
65765;BMP180;52915;53.718;19.946;2023-03-11T03:29:33;97385.80;;;2.04
65765;BMP180;52915;53.718;19.946;2023-03-11T03:34:37;97406.00;;;2.00
65765;BMP180;52915;53.718;19.946;2023-03-11T03:39:42;97416.80;;;2.00
65765;BMP180;52915;53.718;19.946;2023-03-11T03:44:47;97414.40;;;2.00
65765;BMP180;52915;53.718;19.946;2023-03-11T03:49:51;97413.20;;;2.00
65765;BMP180;52915;53.718;19.946;2023-03-11T03:54:55;97411.80;;;2.00
65765;BMP180;52915;53.718;19.946;2023-03-11T03:59:58;97413.60;;;2.00
65765;BMP180;52915;53.718;19.946;2023-03-11T04:05:03;97418.00;;;2.00
65765;BMP180;52915;53.718;19.946;2023-03-11T04:10:08;97423.20;;;2.04
65765;BMP180;52915;53.718;19.946;2023-03-11T04:15:12;97424.80;;;2.02
65765;BMP180;52915;53.718;19.946;2023-03-11T04:20:16;97428.20;;;2.00
65765;BMP180;52915;53.718;19.946;2023-03-11T04:25:20;97431.80;;;2.10
65765;BMP180;52915;53.718;19.946;2023-03-11T04:30:24;97434.20;;;2.18
65765;BMP180;52915;53.718;19.946;2023-03-11T04:35:28;97441.60;;;2.00
65765;BMP180;52915;53.718;19.946;2023-03-11T04:40:32;97438.20;;;1.90
65765;BMP180;52915;53.718;19.946;2023-03-11T04:45:39;97443.20;;;1.80
65765;BMP180;52915;53.718;19.946;2023-03-11T04:50:44;97442.80;;;1.90
65765;BMP180;52915;53.718;19.946;2023-03-11T04:55:48;97440.20;;;2.00
65765;BMP180;52915;53.718;19.946;2023-03-11T05:00:52;97450.00;;;2.00
65765;BMP180;52915;53.718;19.946;2023-03-11T05:05:57;97461.80;;;2.10
65765;BMP180;52915;53.718;19.946;2023-03-11T05:11:03;97453.80;;;2.00
65765;BMP180;52915;53.718;19.946;2023-03-11T05:16:07;97459.00;;;1.84
65765;BMP180;52915;53.718;19.946;2023-03-11T05:21:12;97457.60;;;1.90
65765;BMP180;52915;53.718;19.946;2023-03-11T05:26:18;97459.60;;;2.00
65765;BMP180;52915;53.718;19.946;2023-03-11T05:31:24;97469.80;;;2.16
65765;BMP180;52915;53.718;19.946;2023-03-11T05:36:28;97480.20;;;2.10
65765;BMP180;52915;53.718;19.946;2023-03-11T05:41:33;97488.20;;;1.90
65765;BMP180;52915;53.718;19.946;2023-03-11T05:46:37;97495.40;;;1.98
65765;BMP180;52915;53.718;19.946;2023-03-11T05:51:44;97492.40;;;2.08
65765;BMP180;52915;53.718;19.946;2023-03-11T05:56:49;97494.20;;;2.00
65765;BMP180;52915;53.718;19.946;2023-03-11T06:01:53;97494.80;;;2.00
65765;BMP180;52915;53.718;19.946;2023-03-11T06:06:57;97505.60;;;2.10
65765;BMP180;52915;53.718;19.946;2023-03-11T06:12:03;97524.40;;;1.90
65765;BMP180;52915;53.718;19.946;2023-03-11T06:17:07;97533.60;;;1.98
65765;BMP180;52915;53.718;19.946;2023-03-11T06:22:11;97544.80;;;1.90
65765;BMP180;52915;53.718;19.946;2023-03-11T06:27:15;97562.60;;;1.70
65765;BMP180;52915;53.718;19.946;2023-03-11T06:32:19;97569.60;;;1.70
65765;BMP180;52915;53.718;19.946;2023-03-11T06:37:25;97582.00;;;1.60
65765;BMP180;52915;53.718;19.946;2023-03-11T06:42:28;97588.00;;;1.60
65765;BMP180;52915;53.718;19.946;2023-03-11T06:47:32;97601.80;;;1.60
65765;BMP180;52915;53.718;19.946;2023-03-11T06:52:37;97606.20;;;1.60
65765;BMP180;52915;53.718;19.946;2023-03-11T06:57:41;97614.00;;;1.78
65765;BMP180;52915;53.718;19.946;2023-03-11T07:02:44;97622.80;;;1.80
65765;BMP180;52915;53.718;19.946;2023-03-11T07:07:53;97639.40;;;1.84
65765;BMP180;52915;53.718;19.946;2023-03-11T07:12:57;97658.60;;;1.90
65765;BMP180;52915;53.718;19.946;2023-03-11T07:18:01;97674.40;;;1.90
65765;BMP180;52915;53.718;19.946;2023-03-11T07:23:05;97683.20;;;2.00
65765;BMP180;52915;53.718;19.946;2023-03-11T07:28:09;97697.60;;;2.00
65765;BMP180;52915;53.718;19.946;2023-03-11T07:33:13;97699.00;;;2.00
65765;BMP180;52915;53.718;19.946;2023-03-11T07:38:18;97704.00;;;2.20
65765;BMP180;52915;53.718;19.946;2023-03-11T07:43:23;97717.60;;;2.20
65765;BMP180;52915;53.718;19.946;2023-03-11T07:48:27;97732.00;;;2.20
65765;BMP180;52915;53.718;19.946;2023-03-11T07:53:32;97731.00;;;2.30
65765;BMP180;52915;53.718;19.946;2023-03-11T07:58:37;97727.60;;;2.48
65765;BMP180;52915;53.718;19.946;2023-03-11T08:03:47;97731.20;;;2.86
65765;BMP180;52915;53.718;19.946;2023-03-11T08:08:55;97748.00;;;3.00
65765;BMP180;52915;53.718;19.946;2023-03-11T08:14:00;97760.40;;;3.20
65765;BMP180;52915;53.718;19.946;2023-03-11T08:19:04;97766.20;;;3.20
65765;BMP180;52915;53.718;19.946;2023-03-11T08:24:12;97778.80;;;3.08
65765;BMP180;52915;53.718;19.946;2023-03-11T08:29:16;97781.00;;;2.90
65765;BMP180;52915;53.718;19.946;2023-03-11T08:34:20;97792.00;;;2.90
65765;BMP180;52915;53.718;19.946;2023-03-11T08:39:25;97800.20;;;3.00
65765;BMP180;52915;53.718;19.946;2023-03-11T08:44:30;97815.20;;;2.90
65765;BMP180;52915;53.718;19.946;2023-03-11T08:49:36;97828.60;;;2.70
65765;BMP180;52915;53.718;19.946;2023-03-11T08:54:41;97849.40;;;2.72
65765;BMP180;52915;53.718;19.946;2023-03-11T08:59:45;97851.60;;;2.70
65765;BMP180;52915;53.718;19.946;2023-03-11T09:04:49;97865.80;;;2.52
65765;BMP180;52915;53.718;19.946;2023-03-11T09:09:53;97877.60;;;2.56
65765;BMP180;52915;53.718;19.946;2023-03-11T09:14:57;97894.60;;;2.40
65765;BMP180;52915;53.718;19.946;2023-03-11T09:20:02;97909.00;;;2.40
65765;BMP180;52915;53.718;19.946;2023-03-11T09:25:09;97917.00;;;2.22
65765;BMP180;52915;53.718;19.946;2023-03-11T09:30:15;97927.40;;;2.30
65765;BMP180;52915;53.718;19.946;2023-03-11T09:35:19;97931.80;;;2.28
65765;BMP180;52915;53.718;19.946;2023-03-11T09:40:25;97946.40;;;2.20
65765;BMP180;52915;53.718;19.946;2023-03-11T09:45:42;97958.40;;;2.20
65765;BMP180;52915;53.718;19.946;2023-03-11T09:50:59;97962.40;;;2.20
65765;BMP180;52915;53.718;19.946;2023-03-11T09:56:09;97977.60;;;2.30
65765;BMP180;52915;53.718;19.946;2023-03-11T10:01:28;97988.80;;;2.26
65765;BMP180;52915;53.718;19.946;2023-03-11T10:06:34;98000.20;;;2.30
65765;BMP180;52915;53.718;19.946;2023-03-11T10:18:09;98032.60;;;2.30
65765;BMP180;52915;53.718;19.946;2023-03-11T10:23:52;98041.80;;;2.20
65765;BMP180;52915;53.718;19.946;2023-03-11T10:29:29;98058.40;;;2.30
65765;BMP180;52915;53.718;19.946;2023-03-11T10:35:21;98074.20;;;2.40
65765;BMP180;52915;53.718;19.946;2023-03-11T10:40:31;98080.60;;;2.50
65765;BMP180;52915;53.718;19.946;2023-03-11T10:45:41;98091.20;;;2.40
65765;BMP180;52915;53.718;19.946;2023-03-11T10:51:34;98101.40;;;2.40
65765;BMP180;52915;53.718;19.946;2023-03-11T10:56:40;98116.20;;;2.32
65765;BMP180;52915;53.718;19.946;2023-03-11T11:01:58;98122.60;;;2.40
65765;BMP180;52915;53.718;19.946;2023-03-11T11:12:32;98130.40;;;2.30
65765;BMP180;52915;53.718;19.946;2023-03-11T11:17:36;98140.20;;;2.30
65765;BMP180;52915;53.718;19.946;2023-03-11T11:22:55;98147.80;;;2.30
65765;BMP180;52915;53.718;19.946;2023-03-11T11:28:17;98158.00;;;2.30
65765;BMP180;52915;53.718;19.946;2023-03-11T11:33:38;98164.40;;;2.20
65765;BMP180;52915;53.718;19.946;2023-03-11T11:38:43;98176.20;;;2.30
65765;BMP180;52915;53.718;19.946;2023-03-11T11:43:57;98185.80;;;2.20
65765;BMP180;52915;53.718;19.946;2023-03-11T11:49:23;98195.20;;;2.30
65765;BMP180;52915;53.718;19.946;2023-03-11T12:05:57;98232.40;;;2.50
65765;BMP180;52915;53.718;19.946;2023-03-11T12:11:10;98236.20;;;2.30
65765;BMP180;52915;53.718;19.946;2023-03-11T12:16:33;98239.00;;;2.16
65765;BMP180;52915;53.718;19.946;2023-03-11T12:27:25;98266.40;;;2.20
65765;BMP180;52915;53.718;19.946;2023-03-11T12:32:52;98272.40;;;2.20
65765;BMP180;52915;53.718;19.946;2023-03-11T12:48:48;98296.20;;;2.50
65765;BMP180;52915;53.718;19.946;2023-03-11T12:53:54;98312.60;;;2.70
65765;BMP180;52915;53.718;19.946;2023-03-11T13:10:36;98344.40;;;2.72
65765;BMP180;52915;53.718;19.946;2023-03-11T13:15:40;98351.60;;;3.08
65765;BMP180;52915;53.718;19.946;2023-03-11T13:21:36;98367.00;;;3.30
65765;BMP180;52915;53.718;19.946;2023-03-11T13:26:28;98378.60;;;3.38
65765;BMP180;52915;53.718;19.946;2023-03-11T13:47:50;98426.00;;;3.30
65765;BMP180;52915;53.718;19.946;2023-03-11T13:52:58;98433.20;;;3.40
65765;BMP180;52915;53.718;19.946;2023-03-11T14:03:21;98436.20;;;4.90
65765;BMP180;52915;53.718;19.946;2023-03-11T14:08:34;98453.00;;;4.84
65765;BMP180;52915;53.718;19.946;2023-03-11T14:13:44;98469.80;;;4.40
65765;BMP180;52915;53.718;19.946;2023-03-11T14:19:16;98482.40;;;3.70
65765;BMP180;52915;53.718;19.946;2023-03-11T14:24:28;98492.40;;;3.10
65765;BMP180;52915;53.718;19.946;2023-03-11T14:29:39;98506.00;;;2.80
65765;BMP180;52915;53.718;19.946;2023-03-11T14:34:46;98519.20;;;2.70
65765;BMP180;52915;53.718;19.946;2023-03-11T14:39:51;98525.60;;;2.50
65765;BMP180;52915;53.718;19.946;2023-03-11T14:45:14;98541.00;;;2.50
65765;BMP180;52915;53.718;19.946;2023-03-11T14:50:25;98547.60;;;2.60
65765;BMP180;52915;53.718;19.946;2023-03-11T14:55:41;98559.40;;;2.60
65765;BMP180;52915;53.718;19.946;2023-03-11T15:06:16;98576.00;;;2.50
65765;BMP180;52915;53.718;19.946;2023-03-11T15:11:25;98587.60;;;2.40
65765;BMP180;52915;53.718;19.946;2023-03-11T15:16:36;98595.60;;;2.20
65765;BMP180;52915;53.718;19.946;2023-03-11T15:21:46;98600.20;;;2.10
65765;BMP180;52915;53.718;19.946;2023-03-11T15:27:05;98607.60;;;1.90
65765;BMP180;52915;53.718;19.946;2023-03-11T15:37:33;98628.40;;;1.86
65765;BMP180;52915;53.718;19.946;2023-03-11T15:42:37;98636.40;;;1.80
65765;BMP180;52915;53.718;19.946;2023-03-11T15:47:42;98646.40;;;2.30
65765;BMP180;52915;53.718;19.946;2023-03-11T15:52:46;98656.60;;;2.16
65765;BMP180;52915;53.718;19.946;2023-03-11T15:58:06;98662.40;;;1.90
65765;BMP180;52915;53.718;19.946;2023-03-11T16:03:10;98675.00;;;1.90
65765;BMP180;52915;53.718;19.946;2023-03-11T16:08:15;98679.20;;;1.70
65765;BMP180;52915;53.718;19.946;2023-03-11T16:13:19;98692.20;;;1.70
65765;BMP180;52915;53.718;19.946;2023-03-11T16:18:23;98705.20;;;1.70
65765;BMP180;52915;53.718;19.946;2023-03-11T16:23:33;98726.00;;;1.50
65765;BMP180;52915;53.718;19.946;2023-03-11T16:28:53;98741.20;;;1.40
65765;BMP180;52915;53.718;19.946;2023-03-11T16:33:57;98744.40;;;1.30
65765;BMP180;52915;53.718;19.946;2023-03-11T16:39:02;98762.00;;;1.10
65765;BMP180;52915;53.718;19.946;2023-03-11T16:44:06;98766.20;;;1.00
65765;BMP180;52915;53.718;19.946;2023-03-11T16:49:12;98780.80;;;1.00
65765;BMP180;52915;53.718;19.946;2023-03-11T16:54:16;98783.60;;;0.90
65765;BMP180;52915;53.718;19.946;2023-03-11T16:59:20;98796.60;;;0.90
65765;BMP180;52915;53.718;19.946;2023-03-11T17:04:24;98796.40;;;0.76
65765;BMP180;52915;53.718;19.946;2023-03-11T17:09:29;98812.20;;;0.70
65765;BMP180;52915;53.718;19.946;2023-03-11T17:14:34;98823.60;;;0.80
65765;BMP180;52915;53.718;19.946;2023-03-11T17:19:38;98828.80;;;0.70
65765;BMP180;52915;53.718;19.946;2023-03-11T17:24:42;98834.80;;;0.60
65765;BMP180;52915;53.718;19.946;2023-03-11T17:29:46;98844.40;;;0.78
65765;BMP180;52915;53.718;19.946;2023-03-11T17:34:51;98850.60;;;0.70
65765;BMP180;52915;53.718;19.946;2023-03-11T17:39:55;98864.40;;;0.60
65765;BMP180;52915;53.718;19.946;2023-03-11T17:44:59;98863.60;;;0.50
65765;BMP180;52915;53.718;19.946;2023-03-11T17:50:04;98873.80;;;0.60
65765;BMP180;52915;53.718;19.946;2023-03-11T17:55:09;98882.00;;;0.50
65765;BMP180;52915;53.718;19.946;2023-03-11T18:00:13;98885.60;;;0.30
65765;BMP180;52915;53.718;19.946;2023-03-11T18:05:19;98891.60;;;0.30
65765;BMP180;52915;53.718;19.946;2023-03-11T18:10:23;98896.00;;;0.20
65765;BMP180;52915;53.718;19.946;2023-03-11T18:15:27;98905.60;;;0.00
65765;BMP180;52915;53.718;19.946;2023-03-11T18:20:32;98906.40;;;0.10
65765;BMP180;52915;53.718;19.946;2023-03-11T18:25:36;98913.80;;;0.10
65765;BMP180;52915;53.718;19.946;2023-03-11T18:30:41;98924.60;;;0.00
65765;BMP180;52915;53.718;19.946;2023-03-11T18:35:45;98932.60;;;0.00
65765;BMP180;52915;53.718;19.946;2023-03-11T18:40:56;98940.80;;;0.20
65765;BMP180;52915;53.718;19.946;2023-03-11T18:46:06;98943.40;;;0.20
65765;BMP180;52915;53.718;19.946;2023-03-11T18:51:13;98950.00;;;0.10
65765;BMP180;52915;53.718;19.946;2023-03-11T18:56:18;98946.40;;;0.00
65765;BMP180;52915;53.718;19.946;2023-03-11T19:01:22;98954.40;;;0.10
65765;BMP180;52915;53.718;19.946;2023-03-11T19:06:28;98955.20;;;0.20
65765;BMP180;52915;53.718;19.946;2023-03-11T19:11:33;98956.80;;;0.10
65765;BMP180;52915;53.718;19.946;2023-03-11T19:16:39;98959.40;;;-0.10
65765;BMP180;52915;53.718;19.946;2023-03-11T19:21:43;98964.40;;;-0.20
65765;BMP180;52915;53.718;19.946;2023-03-11T19:26:50;98977.80;;;-0.10
65765;BMP180;52915;53.718;19.946;2023-03-11T19:31:55;98977.20;;;-0.10
65765;BMP180;52915;53.718;19.946;2023-03-11T19:36:59;98985.20;;;-0.30
65765;BMP180;52915;53.718;19.946;2023-03-11T19:42:03;98988.60;;;-0.50
65765;BMP180;52915;53.718;19.946;2023-03-11T19:47:08;99000.20;;;-0.40
65765;BMP180;52915;53.718;19.946;2023-03-11T19:52:12;99006.40;;;-0.40
65765;BMP180;52915;53.718;19.946;2023-03-11T19:57:16;99006.80;;;-0.50
65765;BMP180;52915;53.718;19.946;2023-03-11T20:02:20;99010.40;;;-0.68
65765;BMP180;52915;53.718;19.946;2023-03-11T20:07:25;99019.20;;;-0.52
65765;BMP180;52915;53.718;19.946;2023-03-11T20:12:29;99017.00;;;-0.38
65765;BMP180;52915;53.718;19.946;2023-03-11T20:17:34;99022.20;;;-0.40
65765;BMP180;52915;53.718;19.946;2023-03-11T20:22:38;99022.20;;;-0.50
65765;BMP180;52915;53.718;19.946;2023-03-11T20:27:42;99029.20;;;-0.60
65765;BMP180;52915;53.718;19.946;2023-03-11T20:32:46;99025.20;;;-0.50
65765;BMP180;52915;53.718;19.946;2023-03-11T20:37:51;99032.00;;;-0.48
65765;BMP180;52915;53.718;19.946;2023-03-11T20:42:56;99030.80;;;-0.60
65765;BMP180;52915;53.718;19.946;2023-03-11T20:47:59;99030.00;;;-0.80
65765;BMP180;52915;53.718;19.946;2023-03-11T20:53:04;99034.40;;;-0.80
65765;BMP180;52915;53.718;19.946;2023-03-11T20:58:09;99035.20;;;-0.70
65765;BMP180;52915;53.718;19.946;2023-03-11T21:03:13;99041.40;;;-0.80
65765;BMP180;52915;53.718;19.946;2023-03-11T21:08:18;99036.00;;;-1.00
65765;BMP180;52915;53.718;19.946;2023-03-11T21:13:22;99037.20;;;-0.90
65765;BMP180;52915;53.718;19.946;2023-03-11T21:18:26;99041.00;;;-1.00
65765;BMP180;52915;53.718;19.946;2023-03-11T21:23:30;99040.60;;;-1.10
65765;BMP180;52915;53.718;19.946;2023-03-11T21:28:36;99031.60;;;-1.10
65765;BMP180;52915;53.718;19.946;2023-03-11T21:33:42;99029.60;;;-1.00
65765;BMP180;52915;53.718;19.946;2023-03-11T21:38:48;99019.80;;;-1.10
65765;BMP180;52915;53.718;19.946;2023-03-11T21:43:54;99025.80;;;-1.20
65765;BMP180;52915;53.718;19.946;2023-03-11T21:49:00;99040.00;;;-1.08
65765;BMP180;52915;53.718;19.946;2023-03-11T21:54:04;99025.80;;;-1.10
65765;BMP180;52915;53.718;19.946;2023-03-11T21:59:08;99025.00;;;-1.30
65765;BMP180;52915;53.718;19.946;2023-03-11T22:04:12;99033.20;;;-1.20
65765;BMP180;52915;53.718;19.946;2023-03-11T22:09:16;99036.60;;;-1.20
65765;BMP180;52915;53.718;19.946;2023-03-11T22:14:21;99035.00;;;-1.30
65765;BMP180;52915;53.718;19.946;2023-03-11T22:19:25;99029.60;;;-1.30
65765;BMP180;52915;53.718;19.946;2023-03-11T22:24:29;99025.20;;;-1.30
65765;BMP180;52915;53.718;19.946;2023-03-11T22:29:32;99018.60;;;-1.58
65765;BMP180;52915;53.718;19.946;2023-03-11T22:34:36;99012.60;;;-1.60
65765;BMP180;52915;53.718;19.946;2023-03-11T22:39:40;99016.80;;;-1.60
65765;BMP180;52915;53.718;19.946;2023-03-11T22:44:44;99015.20;;;-1.80
65765;BMP180;52915;53.718;19.946;2023-03-11T22:49:48;99014.80;;;-1.80
65765;BMP180;52915;53.718;19.946;2023-03-11T22:54:52;99009.60;;;-1.80
65765;BMP180;52915;53.718;19.946;2023-03-11T22:59:56;99005.60;;;-2.00
65765;BMP180;52915;53.718;19.946;2023-03-11T23:05:00;99005.40;;;-2.00
65765;BMP180;52915;53.718;19.946;2023-03-11T23:10:07;99002.80;;;-1.90
65765;BMP180;52915;53.718;19.946;2023-03-11T23:15:16;98998.00;;;-1.90
65765;BMP180;52915;53.718;19.946;2023-03-11T23:20:20;99000.80;;;-1.80
65765;BMP180;52915;53.718;19.946;2023-03-11T23:25:24;98994.40;;;-1.70
65765;BMP180;52915;53.718;19.946;2023-03-11T23:30:28;98992.80;;;-1.70
65765;BMP180;52915;53.718;19.946;2023-03-11T23:35:32;98990.60;;;-1.50
65765;BMP180;52915;53.718;19.946;2023-03-11T23:40:39;98982.00;;;-1.42
65765;BMP180;52915;53.718;19.946;2023-03-11T23:45:43;98974.00;;;-1.50
65765;BMP180;52915;53.718;19.946;2023-03-11T23:50:49;98971.80;;;-1.24
65765;BMP180;52915;53.718;19.946;2023-03-11T23:55:54;98971.80;;;-1.10
